sensor_id;sensor_type;location;lat;lon;timestamp;pressure;altitude;pressure_sealevel;temperature;humidity
34696;BME280;20918;51.138;17.370;2023-02-04T00:03:01;99517.72;;;2.59;95.37
34696;BME280;20918;51.138;17.370;2023-02-04T00:06:12;99521.62;;;2.50;95.73
34696;BME280;20918;51.138;17.370;2023-02-04T00:09:17;99522.23;;;2.44;96.04
34696;BME280;20918;51.138;17.370;2023-02-04T00:12:18;99522.98;;;2.42;96.05
34696;BME280;20918;51.138;17.370;2023-02-04T00:15:20;99528.76;;;2.41;96.11
34696;BME280;20918;51.138;17.370;2023-02-04T00:18:24;99536.61;;;2.41;96.15
34696;BME280;20918;51.138;17.370;2023-02-04T00:21:26;99542.62;;;2.40;94.44
34696;BME280;20918;51.138;17.370;2023-02-04T00:24:30;99552.66;;;2.35;93.37
34696;BME280;20918;51.138;17.370;2023-02-04T00:27:33;99561.95;;;2.31;92.14
34696;BME280;20918;51.138;17.370;2023-02-04T00:30:39;99559.96;;;2.25;91.43
34696;BME280;20918;51.138;17.370;2023-02-04T00:33:58;99554.11;;;2.20;91.13
34696;BME280;20918;51.138;17.370;2023-02-04T00:37:02;99561.35;;;2.15;90.61
34696;BME280;20918;51.138;17.370;2023-02-04T00:40:06;99573.86;;;2.11;90.48
34696;BME280;20918;51.138;17.370;2023-02-04T00:43:13;99575.03;;;2.07;90.14
34696;BME280;20918;51.138;17.370;2023-02-04T00:46:14;99583.75;;;2.05;90.50
34696;BME280;20918;51.138;17.370;2023-02-04T00:49:16;99586.25;;;2.00;90.46
34696;BME280;20918;51.138;17.370;2023-02-04T00:52:18;99596.50;;;1.95;90.45
34696;BME280;20918;51.138;17.370;2023-02-04T00:55:21;99604.88;;;1.86;90.83
34696;BME280;20918;51.138;17.370;2023-02-04T00:58:28;99609.23;;;1.77;91.18
34696;BME280;20918;51.138;17.370;2023-02-04T01:01:31;99613.70;;;1.67;91.37
34696;BME280;20918;51.138;17.370;2023-02-04T01:04:35;99629.73;;;1.58;91.93
34696;BME280;20918;51.138;17.370;2023-02-04T01:07:47;99630.08;;;1.49;92.42
34696;BME280;20918;51.138;17.370;2023-02-04T01:10:53;99640.21;;;1.43;92.71
34696;BME280;20918;51.138;17.370;2023-02-04T01:14:09;99644.47;;;1.35;93.25
34696;BME280;20918;51.138;17.370;2023-02-04T01:17:13;99656.00;;;1.28;93.75
34696;BME280;20918;51.138;17.370;2023-02-04T01:20:24;99668.52;;;1.21;93.79
34696;BME280;20918;51.138;17.370;2023-02-04T01:23:26;99669.91;;;1.17;93.97
34696;BME280;20918;51.138;17.370;2023-02-04T01:26:27;99671.51;;;1.12;94.25
34696;BME280;20918;51.138;17.370;2023-02-04T01:29:34;99680.88;;;1.08;94.40
34696;BME280;20918;51.138;17.370;2023-02-04T01:32:35;99691.56;;;1.02;94.51
34696;BME280;20918;51.138;17.370;2023-02-04T01:35:36;99697.47;;;1.00;94.79
34696;BME280;20918;51.138;17.370;2023-02-04T01:38:42;99707.13;;;1.00;94.97
34696;BME280;20918;51.138;17.370;2023-02-04T01:41:43;99726.11;;;0.95;94.91
34696;BME280;20918;51.138;17.370;2023-02-04T01:44:51;99757.61;;;0.85;94.31
34696;BME280;20918;51.138;17.370;2023-02-04T01:47:55;99801.77;;;0.70;93.48
34696;BME280;20918;51.138;17.370;2023-02-04T01:50:58;99821.33;;;0.50;92.48
34696;BME280;20918;51.138;17.370;2023-02-04T01:54:04;99843.23;;;0.33;92.42
34696;BME280;20918;51.138;17.370;2023-02-04T01:57:08;99867.77;;;0.15;92.30
34696;BME280;20918;51.138;17.370;2023-02-04T02:00:17;99884.72;;;-0.01;92.47
34696;BME280;20918;51.138;17.370;2023-02-04T02:03:20;99905.15;;;-0.18;92.48
34696;BME280;20918;51.138;17.370;2023-02-04T02:06:20;99928.82;;;-0.28;92.64
34696;BME280;20918;51.138;17.370;2023-02-04T02:09:24;99946.02;;;-0.38;92.66
34696;BME280;20918;51.138;17.370;2023-02-04T02:12:26;99965.13;;;-0.47;92.93
34696;BME280;20918;51.138;17.370;2023-02-04T02:15:27;99987.52;;;-0.54;92.72
34696;BME280;20918;51.138;17.370;2023-02-04T02:18:28;99990.85;;;-0.60;92.75
34696;BME280;20918;51.138;17.370;2023-02-04T02:21:46;100023.53;;;-0.66;92.86
34696;BME280;20918;51.138;17.370;2023-02-04T02:24:51;100038.80;;;-0.71;92.69
34696;BME280;20918;51.138;17.370;2023-02-04T02:27:53;100055.95;;;-0.76;92.27
34696;BME280;20918;51.138;17.370;2023-02-04T02:30:59;100078.14;;;-0.78;91.76
34696;BME280;20918;51.138;17.370;2023-02-04T02:34:03;100106.79;;;-0.80;91.36
34696;BME280;20918;51.138;17.370;2023-02-04T02:37:08;100129.48;;;-0.82;91.90
34696;BME280;20918;51.138;17.370;2023-02-04T02:40:10;100137.92;;;-0.84;92.07
34696;BME280;20918;51.138;17.370;2023-02-04T02:43:20;100156.41;;;-0.85;91.80
34696;BME280;20918;51.138;17.370;2023-02-04T02:46:22;100168.91;;;-0.88;91.70
34696;BME280;20918;51.138;17.370;2023-02-04T02:49:29;100189.36;;;-0.90;91.05
34696;BME280;20918;51.138;17.370;2023-02-04T02:52:30;100224.86;;;-0.92;90.69
34696;BME280;20918;51.138;17.370;2023-02-04T02:55:31;100241.25;;;-0.93;90.89
34696;BME280;20918;51.138;17.370;2023-02-04T02:58:33;100257.30;;;-0.94;90.86
34696;BME280;20918;51.138;17.370;2023-02-04T03:01:41;100279.80;;;-0.96;90.59
34696;BME280;20918;51.138;17.370;2023-02-04T03:04:50;100300.79;;;-0.95;90.68
34696;BME280;20918;51.138;17.370;2023-02-04T03:07:58;100311.71;;;-0.95;90.43
34696;BME280;20918;51.138;17.370;2023-02-04T03:11:03;100329.23;;;-0.95;90.47
34696;BME280;20918;51.138;17.370;2023-02-04T03:14:09;100332.25;;;-0.96;90.25
34696;BME280;20918;51.138;17.370;2023-02-04T03:17:14;100365.71;;;-0.95;89.86
34696;BME280;20918;51.138;17.370;2023-02-04T03:20:27;100392.27;;;-0.95;89.92
34696;BME280;20918;51.138;17.370;2023-02-04T03:23:31;100408.99;;;-0.95;89.45
34696;BME280;20918;51.138;17.370;2023-02-04T03:26:33;100421.95;;;-0.97;88.90
34696;BME280;20918;51.138;17.370;2023-02-04T03:29:43;100448.88;;;-0.98;88.66
34696;BME280;20918;51.138;17.370;2023-02-04T03:32:48;100473.70;;;-1.01;88.94
34696;BME280;20918;51.138;17.370;2023-02-04T03:35:51;100493.38;;;-1.05;88.13
34696;BME280;20918;51.138;17.370;2023-02-04T03:38:57;100524.15;;;-1.08;88.02
34696;BME280;20918;51.138;17.370;2023-02-04T03:42:01;100541.46;;;-1.11;87.97
34696;BME280;20918;51.138;17.370;2023-02-04T03:45:04;100558.38;;;-1.16;87.48
34696;BME280;20918;51.138;17.370;2023-02-04T03:48:08;100573.54;;;-1.20;87.33
34696;BME280;20918;51.138;17.370;2023-02-04T03:51:11;100590.07;;;-1.24;87.47
34696;BME280;20918;51.138;17.370;2023-02-04T03:54:14;100606.65;;;-1.26;87.28
34696;BME280;20918;51.138;17.370;2023-02-04T03:57:19;100619.92;;;-1.27;87.11
34696;BME280;20918;51.138;17.370;2023-02-04T04:00:21;100638.73;;;-1.28;87.07
34696;BME280;20918;51.138;17.370;2023-02-04T04:03:26;100658.77;;;-1.30;87.48
34696;BME280;20918;51.138;17.370;2023-02-04T04:06:27;100663.39;;;-1.32;86.91
34696;BME280;20918;51.138;17.370;2023-02-04T04:09:30;100670.77;;;-1.34;87.05
34696;BME280;20918;51.138;17.370;2023-02-04T04:12:30;100688.13;;;-1.34;86.90
34696;BME280;20918;51.138;17.370;2023-02-04T04:15:33;100697.34;;;-1.34;86.59
34696;BME280;20918;51.138;17.370;2023-02-04T04:18:35;100705.66;;;-1.34;86.22
34696;BME280;20918;51.138;17.370;2023-02-04T04:21:36;100715.89;;;-1.34;86.52
34696;BME280;20918;51.138;17.370;2023-02-04T04:24:37;100729.09;;;-1.34;86.48
34696;BME280;20918;51.138;17.370;2023-02-04T04:27:39;100743.64;;;-1.33;86.34
34696;BME280;20918;51.138;17.370;2023-02-04T04:30:40;100754.92;;;-1.33;85.81
34696;BME280;20918;51.138;17.370;2023-02-04T04:33:43;100764.81;;;-1.33;86.06
34696;BME280;20918;51.138;17.370;2023-02-04T04:36:44;100781.65;;;-1.33;85.99
34696;BME280;20918;51.138;17.370;2023-02-04T04:39:45;100788.79;;;-1.34;86.29
34696;BME280;20918;51.138;17.370;2023-02-04T04:42:48;100798.72;;;-1.34;86.11
34696;BME280;20918;51.138;17.370;2023-02-04T04:45:49;100811.79;;;-1.35;86.29
34696;BME280;20918;51.138;17.370;2023-02-04T04:48:53;100821.91;;;-1.37;86.26
34696;BME280;20918;51.138;17.370;2023-02-04T04:51:54;100831.65;;;-1.37;85.71
34696;BME280;20918;51.138;17.370;2023-02-04T04:54:54;100842.63;;;-1.38;85.23
34696;BME280;20918;51.138;17.370;2023-02-04T04:58:00;100862.92;;;-1.38;85.15
34696;BME280;20918;51.138;17.370;2023-02-04T05:01:01;100863.61;;;-1.38;85.11
34696;BME280;20918;51.138;17.370;2023-02-04T05:04:04;100877.82;;;-1.37;84.98
34696;BME280;20918;51.138;17.370;2023-02-04T05:07:05;100890.14;;;-1.37;85.10
34696;BME280;20918;51.138;17.370;2023-02-04T05:10:07;100901.00;;;-1.36;85.53
34696;BME280;20918;51.138;17.370;2023-02-04T05:13:10;100909.37;;;-1.36;85.00
34696;BME280;20918;51.138;17.370;2023-02-04T05:16:11;100922.95;;;-1.38;84.94
34696;BME280;20918;51.138;17.370;2023-02-04T05:19:12;100929.99;;;-1.40;84.67
34696;BME280;20918;51.138;17.370;2023-02-04T05:22:14;100938.13;;;-1.39;83.99
34696;BME280;20918;51.138;17.370;2023-02-04T05:25:15;100950.44;;;-1.39;83.90
34696;BME280;20918;51.138;17.370;2023-02-04T05:28:18;100970.02;;;-1.38;84.14
34696;BME280;20918;51.138;17.370;2023-02-04T05:31:19;100984.26;;;-1.38;84.35
34696;BME280;20918;51.138;17.370;2023-02-04T05:34:24;100996.79;;;-1.39;84.14
34696;BME280;20918;51.138;17.370;2023-02-04T05:37:24;101006.80;;;-1.38;83.83
34696;BME280;20918;51.138;17.370;2023-02-04T05:40:25;101025.40;;;-1.38;83.32
34696;BME280;20918;51.138;17.370;2023-02-04T05:43:26;101034.27;;;-1.39;83.52
34696;BME280;20918;51.138;17.370;2023-02-04T05:46:28;101051.37;;;-1.41;83.33
34696;BME280;20918;51.138;17.370;2023-02-04T05:49:29;101060.10;;;-1.42;83.78
34696;BME280;20918;51.138;17.370;2023-02-04T05:52:31;101064.11;;;-1.42;84.03
34696;BME280;20918;51.138;17.370;2023-02-04T05:55:32;101071.29;;;-1.43;83.80
34696;BME280;20918;51.138;17.370;2023-02-04T05:58:35;101080.14;;;-1.43;84.11
34696;BME280;20918;51.138;17.370;2023-02-04T06:01:39;101091.48;;;-1.45;83.91
34696;BME280;20918;51.138;17.370;2023-02-04T06:04:42;101098.35;;;-1.47;84.13
34696;BME280;20918;51.138;17.370;2023-02-04T06:07:48;101103.27;;;-1.49;83.79
34696;BME280;20918;51.138;17.370;2023-02-04T06:10:52;101112.91;;;-1.51;83.79
34696;BME280;20918;51.138;17.370;2023-02-04T06:13:55;101128.29;;;-1.54;83.71
34696;BME280;20918;51.138;17.370;2023-02-04T06:17:03;101138.12;;;-1.56;84.40
34696;BME280;20918;51.138;17.370;2023-02-04T06:20:09;101149.99;;;-1.58;84.13
34696;BME280;20918;51.138;17.370;2023-02-04T06:23:12;101159.40;;;-1.59;84.52
34696;BME280;20918;51.138;17.370;2023-02-04T06:26:16;101171.48;;;-1.61;84.30
34696;BME280;20918;51.138;17.370;2023-02-04T06:29:21;101182.81;;;-1.63;84.80
34696;BME280;20918;51.138;17.370;2023-02-04T06:32:23;101197.73;;;-1.62;84.74
34696;BME280;20918;51.138;17.370;2023-02-04T06:35:27;101208.48;;;-1.62;84.60
34696;BME280;20918;51.138;17.370;2023-02-04T06:38:31;101215.77;;;-1.62;84.70
34696;BME280;20918;51.138;17.370;2023-02-04T06:41:34;101229.82;;;-1.62;84.71
34696;BME280;20918;51.138;17.370;2023-02-04T06:44:38;101243.77;;;-1.60;84.83
34696;BME280;20918;51.138;17.370;2023-02-04T06:47:40;101253.86;;;-1.55;84.65
34696;BME280;20918;51.138;17.370;2023-02-04T06:50:42;101270.09;;;-1.49;84.74
34696;BME280;20918;51.138;17.370;2023-02-04T06:53:47;101277.61;;;-1.43;84.97
34696;BME280;20918;51.138;17.370;2023-02-04T06:56:50;101288.98;;;-1.36;84.46
34696;BME280;20918;51.138;17.370;2023-02-04T06:59:52;101299.34;;;-1.30;84.12
34696;BME280;20918;51.138;17.370;2023-02-04T07:03:05;101312.24;;;-1.31;83.82
34696;BME280;20918;51.138;17.370;2023-02-04T07:51:46;101452.95;;;-0.63;81.92
34696;BME280;20918;51.138;17.370;2023-02-04T07:54:46;101458.77;;;-0.60;81.58
34696;BME280;20918;51.138;17.370;2023-02-04T07:57:47;101466.11;;;-0.53;81.77
34696;BME280;20918;51.138;17.370;2023-02-04T08:00:51;101467.30;;;-0.44;81.44
34696;BME280;20918;51.138;17.370;2023-02-04T08:03:54;101466.27;;;-0.36;81.12
34696;BME280;20918;51.138;17.370;2023-02-04T08:06:55;101460.65;;;-0.30;80.86
34696;BME280;20918;51.138;17.370;2023-02-04T08:09:56;101456.26;;;-0.26;80.68
34696;BME280;20918;51.138;17.370;2023-02-04T08:12:56;101464.77;;;-0.12;80.74
34696;BME280;20918;51.138;17.370;2023-02-04T08:15:57;101478.14;;;0.04;79.69
34696;BME280;20918;51.138;17.370;2023-02-04T08:19:03;101478.52;;;0.24;79.07
34696;BME280;20918;51.138;17.370;2023-02-04T08:22:12;101486.48;;;0.44;76.71
34696;BME280;20918;51.138;17.370;2023-02-04T08:25:13;101480.40;;;0.67;77.09
34696;BME280;20918;51.138;17.370;2023-02-04T08:28:13;101492.37;;;0.98;78.22
34696;BME280;20918;51.138;17.370;2023-02-04T08:31:14;101497.40;;;1.25;76.50
34696;BME280;20918;51.138;17.370;2023-02-04T08:34:15;101497.16;;;1.37;75.55
34696;BME280;20918;51.138;17.370;2023-02-04T08:37:15;101495.52;;;1.53;76.43
34696;BME280;20918;51.138;17.370;2023-02-04T08:40:16;101489.93;;;1.60;73.07
34696;BME280;20918;51.138;17.370;2023-02-04T08:43:17;101496.81;;;1.62;74.48
34696;BME280;20918;51.138;17.370;2023-02-04T08:46:17;101501.73;;;1.79;74.47
34696;BME280;20918;51.138;17.370;2023-02-04T08:49:18;101507.30;;;1.79;72.95
34696;BME280;20918;51.138;17.370;2023-02-04T08:52:18;101504.27;;;1.81;72.89
34696;BME280;20918;51.138;17.370;2023-02-04T08:55:19;101509.38;;;1.87;72.83
34696;BME280;20918;51.138;17.370;2023-02-04T08:58:19;101519.73;;;2.17;74.09
34696;BME280;20918;51.138;17.370;2023-02-04T09:01:21;101526.19;;;2.20;72.18
34696;BME280;20918;51.138;17.370;2023-02-04T09:04:23;101529.18;;;1.71;71.74
34696;BME280;20918;51.138;17.370;2023-02-04T09:07:23;101536.91;;;1.26;72.02
34696;BME280;20918;51.138;17.370;2023-02-04T09:10:24;101541.13;;;0.88;72.46
34696;BME280;20918;51.138;17.370;2023-02-04T09:13:25;101547.05;;;0.64;73.64
34696;BME280;20918;51.138;17.370;2023-02-04T09:16:25;101550.66;;;0.50;73.79
34696;BME280;20918;51.138;17.370;2023-02-04T09:19:26;101549.44;;;0.37;74.10
34696;BME280;20918;51.138;17.370;2023-02-04T09:22:26;101562.71;;;0.29;74.59
34696;BME280;20918;51.138;17.370;2023-02-04T09:25:27;101561.98;;;0.25;75.12
34696;BME280;20918;51.138;17.370;2023-02-04T09:28:27;101571.32;;;0.27;75.25
34696;BME280;20918;51.138;17.370;2023-02-04T09:31:28;101576.35;;;0.23;74.86
34696;BME280;20918;51.138;17.370;2023-02-04T09:34:28;101577.69;;;0.16;74.99
34696;BME280;20918;51.138;17.370;2023-02-04T09:37:29;101585.02;;;0.12;75.05
34696;BME280;20918;51.138;17.370;2023-02-04T09:40:33;101591.05;;;0.09;75.51
34696;BME280;20918;51.138;17.370;2023-02-04T09:43:41;101592.94;;;0.05;75.83
34696;BME280;20918;51.138;17.370;2023-02-04T09:46:48;101596.69;;;0.03;76.06
34696;BME280;20918;51.138;17.370;2023-02-04T09:49:50;101594.84;;;0.02;76.10
34696;BME280;20918;51.138;17.370;2023-02-04T09:52:54;101594.45;;;0.03;76.43
34696;BME280;20918;51.138;17.370;2023-02-04T09:55:56;101597.30;;;0.05;77.06
34696;BME280;20918;51.138;17.370;2023-02-04T09:58:57;101596.08;;;0.09;77.18
34696;BME280;20918;51.138;17.370;2023-02-04T10:02:03;101592.95;;;0.13;77.44
34696;BME280;20918;51.138;17.370;2023-02-04T10:05:16;101591.52;;;0.18;77.47
34696;BME280;20918;51.138;17.370;2023-02-04T10:08:19;101599.69;;;0.18;77.59
34696;BME280;20918;51.138;17.370;2023-02-04T10:11:22;101603.52;;;0.18;77.72
34696;BME280;20918;51.138;17.370;2023-02-04T10:14:23;101613.57;;;0.11;78.03
34696;BME280;20918;51.138;17.370;2023-02-04T10:17:24;101611.54;;;0.06;78.25
34696;BME280;20918;51.138;17.370;2023-02-04T10:20:25;101621.05;;;-0.02;78.14
34696;BME280;20918;51.138;17.370;2023-02-04T10:23:26;101622.53;;;-0.12;78.54
34696;BME280;20918;51.138;17.370;2023-02-04T10:26:28;101622.58;;;-0.18;78.98
34696;BME280;20918;51.138;17.370;2023-02-04T10:29:29;101623.77;;;-0.17;79.46
34696;BME280;20918;51.138;17.370;2023-02-04T10:32:32;101625.46;;;-0.08;79.63
34696;BME280;20918;51.138;17.370;2023-02-04T10:35:43;101626.30;;;0.11;80.10
34696;BME280;20918;51.138;17.370;2023-02-04T10:38:58;101632.39;;;0.36;80.00
34696;BME280;20918;51.138;17.370;2023-02-04T10:41:59;101634.46;;;0.56;79.63
34696;BME280;20918;51.138;17.370;2023-02-04T10:45:00;101635.63;;;0.62;78.69
34696;BME280;20918;51.138;17.370;2023-02-04T10:48:01;101635.89;;;0.68;78.97
34696;BME280;20918;51.138;17.370;2023-02-04T10:51:01;101644.66;;;0.75;78.75
34696;BME280;20918;51.138;17.370;2023-02-04T10:54:09;101648.41;;;0.81;77.28
34696;BME280;20918;51.138;17.370;2023-02-04T10:57:30;101644.66;;;0.79;77.22
34696;BME280;20918;51.138;17.370;2023-02-04T11:00:35;101650.71;;;0.88;77.20
34696;BME280;20918;51.138;17.370;2023-02-04T11:03:37;101656.48;;;1.00;76.29
34696;BME280;20918;51.138;17.370;2023-02-04T11:06:38;101662.10;;;1.06;76.48
34696;BME280;20918;51.138;17.370;2023-02-04T11:09:42;101665.03;;;1.11;75.96
34696;BME280;20918;51.138;17.370;2023-02-04T11:19:14;101666.34;;;1.13;75.32
34696;BME280;20918;51.138;17.370;2023-02-04T11:22:41;101672.72;;;0.99;74.88
34696;BME280;20918;51.138;17.370;2023-02-04T11:25:42;101678.09;;;0.79;74.40
34696;BME280;20918;51.138;17.370;2023-02-04T11:28:50;101683.07;;;0.64;74.21
34696;BME280;20918;51.138;17.370;2023-02-04T11:34:51;101703.74;;;0.45;74.52
34696;BME280;20918;51.138;17.370;2023-02-04T11:37:55;101697.63;;;0.41;74.54
34696;BME280;20918;51.138;17.370;2023-02-04T11:40:57;101698.77;;;0.43;74.53
34696;BME280;20918;51.138;17.370;2023-02-04T11:44:02;101704.13;;;0.52;74.60
34696;BME280;20918;51.138;17.370;2023-02-04T11:47:06;101701.65;;;0.70;73.22
34696;BME280;20918;51.138;17.370;2023-02-04T11:50:24;101702.73;;;0.65;72.79
34696;BME280;20918;51.138;17.370;2023-02-04T11:53:32;101706.45;;;0.55;72.68
34696;BME280;20918;51.138;17.370;2023-02-04T11:56:33;101712.59;;;0.46;72.79
34696;BME280;20918;51.138;17.370;2023-02-04T11:59:33;101715.02;;;0.37;71.95
34696;BME280;20918;51.138;17.370;2023-02-04T12:02:45;101716.79;;;0.28;72.11
34696;BME280;20918;51.138;17.370;2023-02-04T12:05:46;101715.11;;;0.27;72.73
34696;BME280;20918;51.138;17.370;2023-02-04T12:08:48;101715.59;;;0.23;70.52
34696;BME280;20918;51.138;17.370;2023-02-04T12:11:54;101717.54;;;0.26;70.31
34696;BME280;20918;51.138;17.370;2023-02-04T12:15:03;101723.75;;;0.24;69.11
34696;BME280;20918;51.138;17.370;2023-02-04T12:18:09;101725.29;;;0.16;69.80
34696;BME280;20918;51.138;17.370;2023-02-04T12:21:12;101730.48;;;0.08;70.01
34696;BME280;20918;51.138;17.370;2023-02-04T12:24:13;101736.80;;;0.10;70.62
34696;BME280;20918;51.138;17.370;2023-02-04T12:27:14;101737.52;;;0.23;71.00
34696;BME280;20918;51.138;17.370;2023-02-04T12:30:14;101741.57;;;0.26;70.23
34696;BME280;20918;51.138;17.370;2023-02-04T12:33:17;101739.08;;;0.23;70.67
34696;BME280;20918;51.138;17.370;2023-02-04T12:36:18;101736.36;;;0.21;70.38
34696;BME280;20918;51.138;17.370;2023-02-04T12:39:19;101734.69;;;0.20;69.23
34696;BME280;20918;51.138;17.370;2023-02-04T12:42:20;101741.52;;;0.32;69.75
34696;BME280;20918;51.138;17.370;2023-02-04T12:45:21;101742.86;;;0.38;68.93
34696;BME280;20918;51.138;17.370;2023-02-04T12:48:21;101742.33;;;0.38;69.50
34696;BME280;20918;51.138;17.370;2023-02-04T12:51:22;101741.41;;;0.39;69.19
34696;BME280;20918;51.138;17.370;2023-02-04T12:54:23;101747.38;;;0.42;69.29
34696;BME280;20918;51.138;17.370;2023-02-04T12:57:23;101747.30;;;0.44;68.66
34696;BME280;20918;51.138;17.370;2023-02-04T13:00:24;101750.27;;;0.56;69.35
34696;BME280;20918;51.138;17.370;2023-02-04T13:03:26;101751.16;;;0.77;70.00
34696;BME280;20918;51.138;17.370;2023-02-04T13:06:27;101745.79;;;0.85;69.55
34696;BME280;20918;51.138;17.370;2023-02-04T13:09:27;101750.38;;;0.92;68.52
34696;BME280;20918;51.138;17.370;2023-02-04T13:12:28;101752.95;;;1.05;68.43
34696;BME280;20918;51.138;17.370;2023-02-04T13:15:29;101753.63;;;1.18;68.66
34696;BME280;20918;51.138;17.370;2023-02-04T13:18:29;101758.54;;;1.29;69.32
34696;BME280;20918;51.138;17.370;2023-02-04T13:21:30;101758.44;;;1.40;68.02
34696;BME280;20918;51.138;17.370;2023-02-04T13:24:30;101755.39;;;1.33;66.72
34696;BME280;20918;51.138;17.370;2023-02-04T13:27:31;101759.84;;;1.27;66.68
34696;BME280;20918;51.138;17.370;2023-02-04T13:30:32;101762.10;;;1.31;67.24
34696;BME280;20918;51.138;17.370;2023-02-04T13:33:32;101759.30;;;1.23;65.60
34696;BME280;20918;51.138;17.370;2023-02-04T13:36:33;101762.91;;;1.25;65.71
34696;BME280;20918;51.138;17.370;2023-02-04T13:39:34;101768.44;;;1.26;63.87
34696;BME280;20918;51.138;17.370;2023-02-04T13:42:34;101771.48;;;1.28;62.57
34696;BME280;20918;51.138;17.370;2023-02-04T13:45:35;101773.09;;;1.23;63.53
34696;BME280;20918;51.138;17.370;2023-02-04T13:48:35;101768.88;;;1.16;65.17
34696;BME280;20918;51.138;17.370;2023-02-04T13:51:36;101780.12;;;1.06;65.25
34696;BME280;20918;51.138;17.370;2023-02-04T13:54:36;101786.13;;;0.91;64.03
34696;BME280;20918;51.138;17.370;2023-02-04T13:57:37;101808.45;;;0.73;64.89
34696;BME280;20918;51.138;17.370;2023-02-04T14:00:37;101825.50;;;0.34;67.63
34696;BME280;20918;51.138;17.370;2023-02-04T14:03:38;101834.04;;;-0.27;68.98
34696;BME280;20918;51.138;17.370;2023-02-04T14:06:39;101836.05;;;-0.64;70.55
34696;BME280;20918;51.138;17.370;2023-02-04T14:09:42;101816.95;;;-0.79;70.94
34696;BME280;20918;51.138;17.370;2023-02-04T14:12:43;101812.92;;;-0.88;69.84
34696;BME280;20918;51.138;17.370;2023-02-04T14:15:44;101809.83;;;-0.89;69.16
34696;BME280;20918;51.138;17.370;2023-02-04T14:18:44;101810.92;;;-0.86;68.65
34696;BME280;20918;51.138;17.370;2023-02-04T14:21:45;101814.96;;;-0.82;68.89
34696;BME280;20918;51.138;17.370;2023-02-04T14:24:46;101816.88;;;-0.77;69.25
34696;BME280;20918;51.138;17.370;2023-02-04T14:27:49;101821.46;;;-0.74;69.83
34696;BME280;20918;51.138;17.370;2023-02-04T14:30:51;101820.07;;;-0.69;70.21
34696;BME280;20918;51.138;17.370;2023-02-04T14:33:53;101816.17;;;-0.62;70.75
34696;BME280;20918;51.138;17.370;2023-02-04T14:36:55;101817.48;;;-0.55;70.96
34696;BME280;20918;51.138;17.370;2023-02-04T14:39:56;101814.90;;;-0.51;70.92
34696;BME280;20918;51.138;17.370;2023-02-04T14:42:56;101814.35;;;-0.50;71.17
34696;BME280;20918;51.138;17.370;2023-02-04T14:45:57;101812.09;;;-0.50;71.31
34696;BME280;20918;51.138;17.370;2023-02-04T14:48:57;101815.37;;;-0.49;71.53
34696;BME280;20918;51.138;17.370;2023-02-04T14:51:59;101812.76;;;-0.49;70.94
34696;BME280;20918;51.138;17.370;2023-02-04T14:55:00;101815.84;;;-0.48;70.63
34696;BME280;20918;51.138;17.370;2023-02-04T14:58:01;101813.14;;;-0.44;70.28
34696;BME280;20918;51.138;17.370;2023-02-04T15:01:01;101821.74;;;-0.42;70.03
34696;BME280;20918;51.138;17.370;2023-02-04T15:04:02;101828.55;;;-0.38;70.33
34696;BME280;20918;51.138;17.370;2023-02-04T15:07:03;101828.97;;;-0.35;70.31
34696;BME280;20918;51.138;17.370;2023-02-04T15:10:04;101834.23;;;-0.32;69.94
34696;BME280;20918;51.138;17.370;2023-02-04T15:13:05;101836.63;;;-0.26;69.44
34696;BME280;20918;51.138;17.370;2023-02-04T15:16:06;101846.36;;;-0.20;70.05
34696;BME280;20918;51.138;17.370;2023-02-04T15:19:06;101842.54;;;-0.30;71.65
34696;BME280;20918;51.138;17.370;2023-02-04T15:22:07;101851.92;;;-0.55;72.54
34696;BME280;20918;51.138;17.370;2023-02-04T15:25:09;101855.13;;;-0.73;73.58
34696;BME280;20918;51.138;17.370;2023-02-04T15:28:09;101853.04;;;-0.83;73.67
34696;BME280;20918;51.138;17.370;2023-02-04T15:31:10;101851.33;;;-0.89;73.90
34696;BME280;20918;51.138;17.370;2023-02-04T15:34:11;101855.49;;;-0.94;74.30
34696;BME280;20918;51.138;17.370;2023-02-04T15:37:12;101855.81;;;-0.99;74.50
34696;BME280;20918;51.138;17.370;2023-02-04T15:40:13;101858.85;;;-1.01;74.04
34696;BME280;20918;51.138;17.370;2023-02-04T15:43:13;101862.59;;;-0.99;74.11
34696;BME280;20918;51.138;17.370;2023-02-04T15:46:14;101865.23;;;-0.99;73.22
34696;BME280;20918;51.138;17.370;2023-02-04T15:49:15;101863.77;;;-1.03;73.70
34696;BME280;20918;51.138;17.370;2023-02-04T15:52:15;101868.09;;;-1.08;75.58
34696;BME280;20918;51.138;17.370;2023-02-04T15:55:16;101870.31;;;-1.17;76.37
34696;BME280;20918;51.138;17.370;2023-02-04T15:58:17;101869.95;;;-1.27;76.71
34696;BME280;20918;51.138;17.370;2023-02-04T16:01:18;101876.16;;;-1.38;77.16
34696;BME280;20918;51.138;17.370;2023-02-04T16:04:19;101880.80;;;-1.47;77.31
34696;BME280;20918;51.138;17.370;2023-02-04T16:07:19;101885.54;;;-1.55;77.74
34696;BME280;20918;51.138;17.370;2023-02-04T16:10:20;101886.60;;;-1.61;77.99
34696;BME280;20918;51.138;17.370;2023-02-04T16:13:24;101890.36;;;-1.66;77.97
34696;BME280;20918;51.138;17.370;2023-02-04T16:16:24;101893.24;;;-1.69;77.91
34696;BME280;20918;51.138;17.370;2023-02-04T16:19:25;101895.58;;;-1.71;78.25
34696;BME280;20918;51.138;17.370;2023-02-04T16:22:26;101896.31;;;-1.73;78.71
34696;BME280;20918;51.138;17.370;2023-02-04T16:25:27;101898.23;;;-1.73;78.53
34696;BME280;20918;51.138;17.370;2023-02-04T16:28:27;101895.29;;;-1.74;78.90
34696;BME280;20918;51.138;17.370;2023-02-04T16:31:28;101894.59;;;-1.73;79.18
34696;BME280;20918;51.138;17.370;2023-02-04T16:34:28;101901.85;;;-1.73;79.09
34696;BME280;20918;51.138;17.370;2023-02-04T16:37:29;101903.57;;;-1.72;79.20
34696;BME280;20918;51.138;17.370;2023-02-04T16:40:30;101906.55;;;-1.73;79.61
34696;BME280;20918;51.138;17.370;2023-02-04T16:43:31;101903.46;;;-1.74;79.66
34696;BME280;20918;51.138;17.370;2023-02-04T16:46:32;101907.08;;;-1.73;79.66